createdAt,value
2018-04-29T00:01:45.248Z,76.45
2018-04-29T00:04:13.629Z,76.46
2018-04-29T00:06:42.025Z,76.72
2018-04-29T00:09:11.057Z,76.86
2018-04-29T00:11:40.228Z,76.83
2018-04-29T00:14:08.519Z,76.71
2018-04-29T00:16:36.809Z,76.98
2018-04-29T00:19:05.876Z,77.08
2018-04-29T00:21:34.170Z,76.94
2018-04-29T00:24:02.472Z,76.96
2018-04-29T00:26:31.573Z,77.37
2018-04-29T00:29:00.639Z,77.67
2018-04-29T00:31:29.118Z,78.35
2018-04-29T00:33:57.703Z,78.13
2018-04-29T00:36:26.404Z,78.32
2018-04-29T00:38:55.451Z,78.83
2018-04-29T00:41:23.739Z,79.32
2018-04-29T00:43:52.111Z,79.48
2018-04-29T00:46:20.501Z,79.76
2018-04-29T00:48:48.796Z,79.83
2018-04-29T00:51:17.104Z,79.73
2018-04-29T00:53:46.281Z,80.28
2018-04-29T00:56:14.568Z,80.61
2018-04-29T00:58:42.850Z,80.84
2018-04-29T01:01:12.014Z,81.17
2018-04-29T01:03:40.706Z,81.33
2018-04-29T01:06:09.072Z,81.26
2018-04-29T01:08:37.615Z,81.60
2018-04-29T01:11:06.663Z,81.91
2018-04-29T01:13:35.039Z,82.01
2018-04-29T01:16:04.242Z,81.98
2018-04-29T01:18:32.557Z,82.71
2018-04-29T01:21:03.115Z,82.26
2018-04-29T01:23:31.403Z,82.51
2018-04-29T01:25:59.673Z,82.78
2018-04-29T01:28:28.433Z,82.89
2018-04-29T01:30:57.480Z,82.66
2018-04-29T01:33:25.774Z,82.25
2018-04-29T01:35:54.591Z,82.12
2018-04-29T01:38:24.390Z,82.54
2018-04-29T01:40:53.259Z,83.29
2018-04-29T01:43:22.044Z,83.13
2018-04-29T01:45:50.339Z,83.12
2018-04-29T01:48:19.002Z,83.00
2018-04-29T01:50:47.371Z,83.18
2018-04-29T01:53:15.642Z,83.83
2018-04-29T01:55:43.950Z,83.80
2018-04-29T01:58:12.890Z,83.84
2018-04-29T02:00:41.927Z,84.28
2018-04-29T02:03:10.247Z,83.87
2018-04-29T02:05:38.551Z,84.05
2018-04-29T02:08:06.830Z,83.72
2018-04-29T02:10:35.160Z,84.00
2018-04-29T02:13:03.467Z,84.51
2018-04-29T02:15:32.498Z,84.09
2018-04-29T02:18:01.251Z,84.12
2018-04-29T02:20:30.407Z,84.26
2018-04-29T02:22:58.712Z,83.50
2018-04-29T02:25:27.078Z,83.48
2018-04-29T02:27:55.341Z,83.32
2018-04-29T02:30:23.658Z,83.12
2018-04-29T02:32:51.964Z,83.70
2018-04-29T02:35:20.259Z,83.65
2018-04-29T02:37:48.707Z,84.46
2018-04-29T02:40:18.201Z,84.43
2018-04-29T02:42:46.478Z,84.25
2018-04-29T02:45:14.769Z,84.09
2018-04-29T02:47:43.827Z,83.84
2018-04-29T02:50:12.505Z,84.71
2018-04-29T02:52:41.426Z,84.88
2018-04-29T02:55:10.444Z,84.89
2018-04-29T02:57:39.823Z,84.79
2018-04-29T03:00:08.459Z,85.61
2018-04-29T03:02:36.733Z,85.36
2018-04-29T03:05:05.025Z,85.68
2018-04-29T03:07:33.622Z,85.80
2018-04-29T03:10:01.909Z,85.80
2018-04-29T03:12:30.540Z,85.39
2018-04-29T03:14:59.661Z,85.07
2018-04-29T03:17:28.472Z,85.92
2018-04-29T03:19:56.846Z,86.43
2018-04-29T03:22:25.208Z,86.87
2018-04-29T03:24:53.627Z,85.89
2018-04-29T03:27:22.831Z,85.72
2018-04-29T03:29:51.621Z,85.65
2018-04-29T03:32:20.331Z,85.66
2018-04-29T03:34:49.499Z,86.07
2018-04-29T03:37:18.261Z,86.22
2018-04-29T03:39:46.543Z,86.42
2018-04-29T03:42:14.826Z,86.93
2018-04-29T03:44:43.309Z,86.37
2018-04-29T03:47:11.630Z,86.03
2018-04-29T03:49:39.920Z,85.17
2018-04-29T03:52:08.998Z,85.66
2018-04-29T03:54:37.302Z,85.97
2018-04-29T03:57:24.085Z,86.44
2018-04-29T04:00:10.803Z,86.28
2018-04-29T04:05:48.794Z,85.53
2018-04-29T04:08:17.182Z,85.55
2018-04-29T04:10:45.884Z,85.31
2018-04-29T04:13:15.106Z,85.32
2018-04-29T04:15:44.166Z,85.92
2018-04-29T04:18:12.450Z,86.28
2018-04-29T04:20:41.435Z,86.72
2018-04-29T04:23:10.357Z,86.83
2018-04-29T04:25:38.640Z,86.77
2018-04-29T04:28:07.701Z,87.05
2018-04-29T04:30:35.987Z,87.03
2018-04-29T04:33:04.868Z,86.99
2018-04-29T04:35:33.155Z,87.18
2018-04-29T04:38:01.518Z,87.44
2018-04-29T04:40:29.818Z,87.49
2018-04-29T04:42:58.101Z,87.75
2018-04-29T04:45:26.408Z,88.31
2018-04-29T04:47:54.702Z,88.03
2018-04-29T04:50:22.975Z,87.96
2018-04-29T04:52:51.274Z,87.83
2018-04-29T04:55:19.621Z,87.44
2018-04-29T04:57:48.670Z,87.21
2018-04-29T05:00:16.977Z,87.25
2018-04-29T05:02:45.596Z,87.02
2018-04-29T05:05:14.443Z,86.61
2018-04-29T05:07:43.007Z,86.15
2018-04-29T05:10:11.304Z,86.13
2018-04-29T05:12:39.584Z,86.08
2018-04-29T05:15:08.436Z,86.30
2018-04-29T05:17:36.710Z,87.28
2018-04-29T05:20:04.988Z,88.61
2018-04-29T05:22:33.297Z,87.85
2018-04-29T05:25:01.909Z,87.55
2018-04-29T05:27:30.951Z,87.30
2018-04-29T05:29:59.259Z,87.12
2018-04-29T05:32:28.246Z,86.91
2018-04-29T05:34:56.628Z,86.21
2018-04-29T05:37:24.921Z,85.34
2018-04-29T05:39:53.265Z,85.29
2018-04-29T05:42:21.542Z,85.00
2018-04-29T05:44:50.635Z,85.01
2018-04-29T05:47:18.948Z,84.78
2018-04-29T05:49:47.337Z,83.59
2018-04-29T05:52:15.591Z,81.33
2018-04-29T05:54:44.423Z,81.00
2018-04-29T05:57:14.423Z,82.07
2018-04-29T05:59:43.199Z,82.48
2018-04-29T06:02:11.838Z,82.40
2018-04-29T06:04:40.122Z,82.34
2018-04-29T06:07:08.399Z,82.15
2018-04-29T06:09:36.711Z,81.52
2018-04-29T06:12:05.017Z,80.90
2018-04-29T06:14:33.310Z,80.28
2018-04-29T06:17:02.948Z,79.95
2018-04-29T06:19:31.355Z,78.20
2018-04-29T06:22:00.019Z,77.94
2018-04-29T06:24:29.381Z,76.15
2018-04-29T06:26:58.443Z,76.51
2018-04-29T06:29:26.753Z,76.24
2018-04-29T06:31:55.842Z,76.10
2018-04-29T06:34:24.511Z,76.68
2018-04-29T06:36:53.391Z,77.69
2018-04-29T06:39:21.702Z,76.95
2018-04-29T06:41:50.754Z,74.51
2018-04-29T06:44:19.038Z,74.81
2018-04-29T06:46:47.472Z,75.15
2018-04-29T06:49:16.252Z,74.07
2018-04-29T06:51:45.612Z,74.14
2018-04-29T06:54:13.992Z,73.37
2018-04-29T06:56:42.860Z,74.00
2018-04-29T06:59:11.155Z,72.05
2018-04-29T07:01:39.452Z,71.72
2018-04-29T07:04:07.801Z,71.99
2018-04-29T07:06:36.126Z,69.56
2018-04-29T07:09:04.429Z,69.11
2018-04-29T07:11:33.692Z,70.42
2018-04-29T07:14:02.468Z,69.96
2018-04-29T07:16:30.752Z,70.13
2018-04-29T07:18:59.040Z,70.84
2018-04-29T07:21:27.391Z,70.88
2018-04-29T07:23:55.658Z,71.68
2018-04-29T07:26:24.251Z,70.68
2018-04-29T07:28:52.534Z,71.43
2018-04-29T07:31:20.923Z,71.10
2018-04-29T07:33:49.234Z,70.79
2018-04-29T07:36:17.526Z,71.58
2018-04-29T07:38:46.563Z,72.13
2018-04-29T07:41:15.168Z,71.56
2018-04-29T07:43:43.664Z,70.31
2018-04-29T07:46:12.519Z,69.33
2018-04-29T07:48:40.829Z,68.89
2018-04-29T07:51:09.390Z,68.71
2018-04-29T07:53:37.697Z,69.41
2018-04-29T07:56:06.958Z,68.04
2018-04-29T07:58:35.439Z,68.51
2018-04-29T08:01:04.278Z,66.89
2018-04-29T08:03:32.551Z,66.56
2018-04-29T08:06:00.864Z,66.73
2018-04-29T08:08:29.166Z,66.95
2018-04-29T08:10:57.462Z,67.62
2018-04-29T08:13:25.826Z,67.67
2018-04-29T08:15:54.103Z,67.16
2018-04-29T08:18:22.391Z,67.55
2018-04-29T08:20:50.864Z,67.36
2018-04-29T08:23:19.166Z,65.28
2018-04-29T08:25:47.438Z,65.19
2018-04-29T08:28:15.722Z,63.90
2018-04-29T08:30:44.013Z,62.66
2018-04-29T08:33:12.283Z,64.08
2018-04-29T08:35:40.638Z,65.11
2018-04-29T08:38:09.022Z,62.18
2018-04-29T08:40:37.306Z,62.30
2018-04-29T08:43:05.769Z,62.59
2018-04-29T08:45:34.058Z,63.80
2018-04-29T08:48:02.722Z,64.48
2018-04-29T08:50:32.043Z,64.32
2018-04-29T08:53:00.313Z,63.07
2018-04-29T08:55:28.586Z,64.87
2018-04-29T08:57:56.879Z,64.91
2018-04-29T09:00:25.175Z,63.03
2018-04-29T09:02:53.844Z,64.32
2018-04-29T09:05:22.319Z,64.31
2018-04-29T09:07:50.686Z,62.08
2018-04-29T09:10:19.186Z,63.61
2018-04-29T09:12:47.654Z,65.00
2018-04-29T09:15:16.595Z,64.24
2018-04-29T09:17:44.956Z,64.09
2018-04-29T09:20:13.332Z,62.97
2018-04-29T09:22:42.248Z,63.28
2018-04-29T09:25:10.517Z,63.75
2018-04-29T09:27:38.792Z,63.03
2018-04-29T09:30:07.311Z,60.86
2018-04-29T09:32:36.460Z,61.03
2018-04-29T09:35:04.758Z,60.75
2018-04-29T09:37:33.067Z,61.34
2018-04-29T09:40:02.106Z,62.39
2018-04-29T09:42:31.138Z,61.83
2018-04-29T09:44:59.742Z,60.68
2018-04-29T09:47:28.812Z,60.89
2018-04-29T09:49:57.099Z,59.94
2018-04-29T09:52:26.155Z,60.35
2018-04-29T09:54:54.614Z,61.16
2018-04-29T09:57:22.885Z,62.34
2018-04-29T09:59:51.152Z,60.21
2018-04-29T10:02:24.350Z,58.48
2018-04-29T10:04:52.865Z,58.76
2018-04-29T10:07:21.158Z,56.64
2018-04-29T10:09:49.452Z,57.57
2018-04-29T10:12:17.739Z,57.41
2018-04-29T10:14:46.363Z,58.41
2018-04-29T10:17:14.667Z,56.33
2018-04-29T10:19:43.744Z,58.08
2018-04-29T10:22:12.643Z,58.99
2018-04-29T10:24:40.991Z,55.63
2018-04-29T10:27:09.988Z,56.75
2018-04-29T10:29:39.512Z,57.54
2018-04-29T10:32:08.901Z,57.53
2018-04-29T10:34:37.946Z,56.13
2018-04-29T10:37:06.236Z,56.18
2018-04-29T10:39:34.517Z,56.68
2018-04-29T10:42:03.476Z,56.00
2018-04-29T10:44:32.380Z,58.42
2018-04-29T10:47:00.682Z,55.23
2018-04-29T10:49:28.974Z,53.72
2018-04-29T10:51:58.738Z,52.98
2018-04-29T10:54:28.564Z,53.48
2018-04-29T10:56:57.554Z,54.20
2018-04-29T10:59:25.831Z,55.05
2018-04-29T11:01:54.136Z,53.49
2018-04-29T11:04:24.016Z,53.75
2018-04-29T11:06:52.407Z,57.38
2018-04-29T11:09:20.967Z,51.25
2018-04-29T11:11:49.245Z,54.55
2018-04-29T11:14:17.666Z,52.68
2018-04-29T11:16:46.013Z,51.52
2018-04-29T11:19:14.293Z,51.17
2018-04-29T11:21:42.811Z,51.17
2018-04-29T11:24:11.099Z,49.79
2018-04-29T11:26:39.430Z,48.93
2018-04-29T11:29:08.517Z,48.55
2018-04-29T11:31:38.138Z,49.28
2018-04-29T11:34:06.450Z,48.60
2018-04-29T11:36:35.357Z,46.88
2018-04-29T11:39:03.636Z,48.80
2018-04-29T11:41:35.035Z,46.80
2018-04-29T11:44:04.047Z,47.49
2018-04-29T11:46:32.342Z,45.06
2018-04-29T11:49:00.651Z,46.99
2018-04-29T11:51:29.791Z,47.32
2018-04-29T11:53:58.082Z,48.19
2018-04-29T11:56:26.802Z,52.03
2018-04-29T11:58:56.251Z,52.94
2018-04-29T12:01:24.648Z,52.33
2018-04-29T12:03:52.977Z,49.75
2018-04-29T12:06:22.031Z,51.90
2018-04-29T12:08:50.347Z,51.03
2018-04-29T12:11:19.406Z,51.64
2018-04-29T12:13:48.398Z,53.64
2018-04-29T12:16:17.340Z,51.06
2018-04-29T12:18:46.398Z,52.23
2018-04-29T12:21:14.760Z,52.87
2018-04-29T12:23:43.363Z,52.67
2018-04-29T12:26:12.471Z,52.41
2018-04-29T12:28:40.771Z,50.53
2018-04-29T12:31:09.827Z,52.67
2018-04-29T12:33:38.292Z,51.02
2018-04-29T12:36:06.482Z,52.02
2018-04-29T12:38:35.174Z,52.30
2018-04-29T12:41:03.729Z,53.20
2018-04-29T12:43:32.023Z,53.30
2018-04-29T12:46:00.560Z,52.62
2018-04-29T12:48:29.897Z,54.91
2018-04-29T12:50:58.178Z,53.45
2018-04-29T12:53:27.123Z,52.99
2018-04-29T12:55:56.270Z,51.23
2018-04-29T12:58:25.797Z,48.00
2018-04-29T13:00:54.069Z,48.79
2018-04-29T13:03:22.992Z,47.83
2018-04-29T13:05:51.527Z,48.47
2018-04-29T13:08:19.795Z,50.56
2018-04-29T13:10:48.095Z,51.44
2018-04-29T13:13:16.380Z,51.03
2018-04-29T13:15:44.744Z,52.13
2018-04-29T13:18:13.058Z,52.30
2018-04-29T13:20:41.352Z,55.54
2018-04-29T13:23:10.510Z,51.98
2018-04-29T13:25:38.876Z,50.54
2018-04-29T13:28:07.166Z,50.30
2018-04-29T13:30:35.518Z,50.82
2018-04-29T13:33:03.844Z,52.85
2018-04-29T13:35:32.129Z,52.81
2018-04-29T13:38:00.890Z,53.69
2018-04-29T13:40:29.260Z,51.93
2018-04-29T13:42:57.740Z,52.57
2018-04-29T13:45:26.037Z,52.53
2018-04-29T13:47:54.769Z,54.90
2018-04-29T13:50:23.810Z,55.03
2018-04-29T13:52:52.410Z,55.79
2018-04-29T13:55:20.748Z,50.10
2018-04-29T13:57:49.812Z,44.65
2018-04-29T14:00:19.006Z,46.36
2018-04-29T14:02:47.999Z,47.05
2018-04-29T14:05:16.282Z,49.37
2018-04-29T14:07:45.367Z,49.01
2018-04-29T14:10:13.683Z,50.64
2018-04-29T14:12:42.717Z,50.05
2018-04-29T14:15:11.286Z,51.14
2018-04-29T14:17:40.482Z,47.24
2018-04-29T14:20:09.186Z,46.75
2018-04-29T14:22:37.562Z,47.45
2018-04-29T14:25:05.873Z,43.65
2018-04-29T14:27:34.798Z,40.73
2018-04-29T14:30:04.010Z,38.51
2018-04-29T14:32:32.419Z,37.92
2018-04-29T14:35:00.813Z,37.18
2018-04-29T14:37:29.301Z,37.92
2018-04-29T14:39:57.668Z,36.97
2018-04-29T14:42:25.950Z,37.01
2018-04-29T14:44:54.263Z,38.43
2018-04-29T14:47:24.255Z,39.38
2018-04-29T14:49:53.107Z,41.40
2018-04-29T14:52:22.071Z,40.96
2018-04-29T14:54:51.661Z,39.50
2018-04-29T14:57:20.390Z,39.01
2018-04-29T14:59:48.890Z,38.75
2018-04-29T15:02:17.190Z,40.29
2018-04-29T15:04:45.479Z,41.21
2018-04-29T15:07:14.439Z,44.84
2018-04-29T15:09:42.743Z,42.81
2018-04-29T15:12:11.753Z,43.32
2018-04-29T15:14:40.922Z,45.41
2018-04-29T15:17:09.933Z,41.72
2018-04-29T15:19:50.271Z,41.09
2018-04-29T15:22:18.551Z,40.73
2018-04-29T15:24:46.889Z,42.06
2018-04-29T15:27:15.156Z,45.47
2018-04-29T15:29:44.233Z,45.29
2018-04-29T15:32:12.574Z,41.63
2018-04-29T15:34:40.850Z,40.04
2018-04-29T15:37:09.138Z,40.51
2018-04-29T15:39:37.626Z,39.85
2018-04-29T15:42:05.923Z,40.48
2018-04-29T15:44:34.213Z,43.00
2018-04-29T15:47:03.262Z,42.08
2018-04-29T15:49:31.574Z,41.77
2018-04-29T15:52:00.027Z,43.13
2018-04-29T15:54:28.422Z,42.75
2018-04-29T15:56:57.611Z,41.50
2018-04-29T15:59:26.079Z,40.76
2018-04-29T16:01:54.468Z,39.15
2018-04-29T16:04:22.755Z,41.12
2018-04-29T16:06:51.090Z,44.60
2018-04-29T16:09:19.418Z,45.12
2018-04-29T16:11:47.722Z,47.00
2018-04-29T16:14:17.439Z,43.81
2018-04-29T16:16:46.490Z,43.56
2018-04-29T16:19:14.873Z,44.26
2018-04-29T16:21:43.241Z,46.01
2018-04-29T16:24:11.616Z,47.94
2018-04-29T16:26:39.911Z,47.92
2018-04-29T16:29:08.675Z,50.48
2018-04-29T16:31:36.962Z,51.96
2018-04-29T16:34:05.261Z,50.65
2018-04-29T16:36:34.181Z,51.65
2018-04-29T16:39:03.338Z,51.69
2018-04-29T16:41:31.625Z,49.83
2018-04-29T16:44:00.027Z,50.37
2018-04-29T16:46:29.198Z,49.32
2018-04-29T16:48:57.497Z,50.20
2018-04-29T16:51:26.506Z,50.58
2018-04-29T16:53:54.826Z,51.44
2018-04-29T16:56:23.114Z,52.44
2018-04-29T16:58:51.386Z,51.50
2018-04-29T17:01:19.790Z,51.33
2018-04-29T17:03:48.060Z,51.75
2018-04-29T17:06:16.368Z,52.88
2018-04-29T17:08:45.390Z,51.89
2018-04-29T17:11:14.439Z,53.40
2018-04-29T17:13:42.805Z,54.28
2018-04-29T17:16:11.116Z,55.05
2018-04-29T17:18:39.739Z,56.13
2018-04-29T17:21:08.062Z,54.10
2018-04-29T17:23:37.174Z,55.29
2018-04-29T17:26:06.017Z,54.82
2018-04-29T17:28:34.571Z,55.01
2018-04-29T17:31:03.655Z,55.36
2018-04-29T17:33:32.020Z,56.44
2018-04-29T17:36:00.560Z,57.34
2018-04-29T17:38:28.872Z,57.73
2018-04-29T17:40:57.647Z,57.17
2018-04-29T17:43:25.962Z,59.14
2018-04-29T17:45:54.301Z,59.36
2018-04-29T17:48:22.579Z,59.70
2018-04-29T17:50:50.874Z,60.35
2018-04-29T17:53:20.218Z,60.87
2018-04-29T17:55:49.308Z,60.89
2018-04-29T17:58:18.650Z,60.70
2018-04-29T18:00:46.993Z,61.25
2018-04-29T18:03:16.254Z,61.65
2018-04-29T18:05:45.174Z,62.34
2018-04-29T18:08:13.460Z,62.02
2018-04-29T18:10:42.556Z,62.63
2018-04-29T18:13:10.856Z,63.48
2018-04-29T18:15:40.109Z,63.50
2018-04-29T18:18:08.414Z,63.63
2018-04-29T18:20:36.703Z,63.55
2018-04-29T18:23:06.119Z,64.04
2018-04-29T18:25:34.398Z,64.17
2018-04-29T18:28:02.691Z,63.71
2018-04-29T18:30:30.991Z,63.73
2018-04-29T18:32:59.984Z,64.45
2018-04-29T18:35:29.788Z,64.40
2018-04-29T18:37:58.071Z,64.27
2018-04-29T18:40:27.361Z,64.42
2018-04-29T18:42:55.659Z,64.22
2018-04-29T18:45:23.958Z,64.05
2018-04-29T18:47:52.328Z,64.71
2018-04-29T18:50:21.733Z,64.37
2018-04-29T18:52:51.418Z,64.03
2018-04-29T18:55:21.568Z,64.60
2018-04-29T18:57:50.209Z,64.35
2018-04-29T19:00:18.591Z,64.65
2018-04-29T19:02:46.891Z,65.08
2018-04-29T19:05:15.203Z,64.79
2018-04-29T19:07:43.606Z,64.86
2018-04-29T19:10:11.875Z,64.88
2018-04-29T19:12:41.379Z,65.16
2018-04-29T19:15:10.457Z,65.94
2018-04-29T19:17:39.121Z,65.96
2018-04-29T19:20:07.411Z,66.53
2018-04-29T19:22:36.238Z,66.81
2018-04-29T19:25:05.386Z,65.97
2018-04-29T19:27:34.150Z,66.25
2018-04-29T19:30:02.563Z,66.92
2018-04-29T19:32:30.951Z,66.97
2018-04-29T19:35:00.695Z,66.97
2018-04-29T19:37:29.990Z,67.48
2018-04-29T19:39:58.338Z,68.00
2018-04-29T19:42:27.322Z,67.89
2018-04-29T19:44:55.628Z,68.25
2018-04-29T19:47:23.960Z,68.16
2018-04-29T19:49:52.258Z,68.69
2018-04-29T19:52:20.539Z,69.94
2018-04-29T19:54:48.871Z,69.18
2018-04-29T19:57:18.430Z,69.16
2018-04-29T19:59:46.728Z,69.16
2018-04-29T20:02:15.039Z,70.38
2018-04-29T20:04:44.132Z,69.63
2018-04-29T20:07:13.263Z,70.81
2018-04-29T20:09:41.699Z,71.17
2018-04-29T20:12:11.436Z,71.62
2018-04-29T20:14:39.717Z,71.85
2018-04-29T20:17:07.987Z,72.49
2018-04-29T20:19:36.322Z,72.75
2018-04-29T20:22:04.595Z,72.44
2018-04-29T20:24:33.403Z,73.03
2018-04-29T20:27:03.541Z,73.29
2018-04-29T20:29:32.952Z,73.35
2018-04-29T20:32:02.043Z,73.03
2018-04-29T20:34:31.195Z,73.78
2018-04-29T20:36:59.487Z,73.43
2018-04-29T20:39:27.859Z,73.22
2018-04-29T20:41:56.169Z,73.22
2018-04-29T20:44:25.238Z,73.27
2018-04-29T20:46:54.048Z,73.85
2018-04-29T20:49:22.838Z,73.49
2018-04-29T20:51:51.128Z,74.11
2018-04-29T20:54:20.281Z,74.30
2018-04-29T20:56:48.970Z,74.63
2018-04-29T20:59:17.411Z,74.77
2018-04-29T21:01:45.694Z,74.73
2018-04-29T21:04:14.826Z,75.00
2018-04-29T21:06:43.748Z,74.79
2018-04-29T21:09:12.050Z,74.65
2018-04-29T21:11:41.095Z,75.27
2018-04-29T21:14:09.380Z,74.69
2018-04-29T21:16:38.254Z,75.31
2018-04-29T21:19:06.581Z,75.29
2018-04-29T21:21:35.819Z,75.42
2018-04-29T21:24:04.100Z,76.14
2018-04-29T21:26:32.380Z,75.87
2018-04-29T21:29:00.792Z,75.54
2018-04-29T21:31:29.514Z,76.68
2018-04-29T21:33:57.890Z,76.28
2018-04-29T21:36:27.042Z,76.25
2018-04-29T21:38:55.409Z,76.73
2018-04-29T21:41:23.731Z,76.41
2018-04-29T21:43:52.045Z,76.59
2018-04-29T21:46:20.339Z,76.67
2018-04-29T21:48:49.300Z,76.60
2018-04-29T21:51:18.440Z,77.43
2018-04-29T21:53:46.766Z,77.79
2018-04-29T21:56:15.827Z,77.68
2018-04-29T21:58:44.151Z,77.79
2018-04-29T22:01:12.476Z,78.40
2018-04-29T22:03:40.855Z,78.26
2018-04-29T22:06:10.080Z,78.04
2018-04-29T22:08:38.391Z,78.17
2018-04-29T22:11:07.519Z,78.11
2018-04-29T22:13:35.800Z,78.24
2018-04-29T22:16:04.331Z,78.27
2018-04-29T22:18:33.727Z,79.17
2018-04-29T22:21:02.169Z,78.93
2018-04-29T22:23:30.450Z,78.74
2018-04-29T22:25:58.967Z,78.55
2018-04-29T22:28:28.042Z,78.82
2018-04-29T22:30:56.730Z,79.47
2018-04-29T22:33:25.010Z,78.97
2018-04-29T22:35:53.310Z,79.11
2018-04-29T22:38:22.320Z,79.42
2018-04-29T22:40:51.369Z,79.18
2018-04-29T22:43:19.940Z,78.82
2018-04-29T22:45:48.219Z,79.16
2018-04-29T22:48:17.134Z,79.21
2018-04-29T22:50:45.720Z,79.43
2018-04-29T22:53:14.044Z,79.51
2018-04-29T22:55:43.183Z,79.45
2018-04-29T22:58:12.153Z,79.04
2018-04-29T23:00:40.438Z,79.03
2018-04-29T23:03:08.759Z,79.11
2018-04-29T23:05:37.047Z,79.15
2018-04-29T23:08:05.329Z,79.04
2018-04-29T23:10:34.390Z,78.92
2018-04-29T23:13:03.174Z,78.89
2018-04-29T23:15:31.549Z,78.54
2018-04-29T23:17:59.838Z,78.56
2018-04-29T23:20:28.145Z,78.56
2018-04-29T23:22:56.455Z,78.70
2018-04-29T23:25:24.733Z,79.40
2018-04-29T23:27:53.018Z,79.60
2018-04-29T23:30:21.935Z,79.10
2018-04-29T23:32:50.530Z,78.77
2018-04-29T23:35:18.861Z,78.75
2018-04-29T23:37:47.891Z,79.14
2018-04-29T23:40:16.166Z,78.92
2018-04-29T23:42:44.440Z,78.64
2018-04-29T23:45:12.758Z,78.50
2018-04-29T23:47:43.157Z,78.91
2018-04-29T23:50:11.436Z,78.87
2018-04-29T23:52:39.710Z,78.93
2018-04-29T23:55:08.398Z,79.06
2018-04-29T23:57:36.676Z,79.02
